createdAt,value
2023-03-26T00:02:06.909Z,90.83
2023-03-26T00:07:15.545Z,90.50
2023-03-26T00:12:22.133Z,90.51
2023-03-26T00:17:28.829Z,90.50
2023-03-26T00:22:36.915Z,90.87
2023-03-26T00:27:45.829Z,91.11
2023-03-26T00:32:53.383Z,90.60
2023-03-26T00:38:01.851Z,90.38
2023-03-26T00:43:18.964Z,89.82
2023-03-26T00:48:37.897Z,89.81
2023-03-26T00:53:52.933Z,89.87
2023-03-26T00:59:00.509Z,89.76
2023-03-26T01:04:31.507Z,90.17
2023-03-26T01:09:46.051Z,90.10
2023-03-26T01:14:54.841Z,90.31
2023-03-26T01:20:13.853Z,90.45
2023-03-26T01:25:34.167Z,90.46
2023-03-26T01:30:45.479Z,90.43
2023-03-26T01:36:00.444Z,90.42
2023-03-26T01:41:16.023Z,90.57
2023-03-26T01:46:26.023Z,90.48
2023-03-26T01:51:36.436Z,90.99
2023-03-26T01:56:57.355Z,90.92
2023-03-26T02:02:13.874Z,91.23
2023-03-26T02:07:28.999Z,91.15
2023-03-26T02:12:38.156Z,91.01
2023-03-26T02:17:44.066Z,91.05
2023-03-26T02:22:50.441Z,91.12
2023-03-26T02:28:00.043Z,91.09
2023-03-26T02:33:06.778Z,91.10
2023-03-26T02:38:21.816Z,91.22
2023-03-26T02:43:29.942Z,91.39
2023-03-26T02:48:36.627Z,90.94
2023-03-26T02:53:51.640Z,90.11
2023-03-26T02:59:20.038Z,90.32
2023-03-26T03:04:36.426Z,90.14
2023-03-26T03:09:43.282Z,90.16
2023-03-26T03:15:15.122Z,90.05
2023-03-26T03:20:22.390Z,90.00
2023-03-26T03:25:28.800Z,90.33
2023-03-26T03:30:36.832Z,90.02
2023-03-26T03:35:59.740Z,89.89
2023-03-26T03:41:08.335Z,89.76
2023-03-26T03:46:20.631Z,89.19
2023-03-26T03:51:28.560Z,88.68
2023-03-26T03:56:40.416Z,88.80
2023-03-26T04:02:11.232Z,88.22
2023-03-26T04:07:24.658Z,87.99
2023-03-26T04:12:46.382Z,88.28
2023-03-26T04:17:57.682Z,88.28
2023-03-26T04:23:05.057Z,88.03
2023-03-26T04:28:20.049Z,87.76
2023-03-26T04:33:48.816Z,87.24
2023-03-26T04:39:02.763Z,87.63
2023-03-26T04:44:30.619Z,87.29
2023-03-26T04:49:50.071Z,86.85
2023-03-26T04:54:57.720Z,86.33
2023-03-26T05:00:15.329Z,87.14
2023-03-26T05:05:26.289Z,87.95
2023-03-26T05:10:33.373Z,88.10
2023-03-26T05:15:43.672Z,88.13
2023-03-26T05:21:13.571Z,88.18
2023-03-26T05:26:20.722Z,87.63
2023-03-26T05:31:31.066Z,87.17
2023-03-26T05:36:40.050Z,87.15
2023-03-26T05:42:19.789Z,86.58
2023-03-26T05:48:01.249Z,86.59
2023-03-26T05:53:09.342Z,85.85
2023-03-26T05:58:38.902Z,85.69
2023-03-26T06:04:21.280Z,85.81
2023-03-26T06:09:52.746Z,86.24
2023-03-26T06:14:59.970Z,86.37
2023-03-26T06:20:20.268Z,86.48
2023-03-26T06:25:30.190Z,86.46
2023-03-26T06:30:52.953Z,86.18
2023-03-26T06:36:14.073Z,86.60
2023-03-26T06:41:21.992Z,86.59
2023-03-26T06:46:57.610Z,86.27
2023-03-26T06:52:22.749Z,86.03
2023-03-26T06:57:45.287Z,86.02
2023-03-26T07:03:17.661Z,86.09
2023-03-26T07:08:43.199Z,85.61
2023-03-26T07:14:05.932Z,85.48
2023-03-26T07:19:35.112Z,85.64
2023-03-26T07:24:42.703Z,85.45
2023-03-26T07:30:14.845Z,85.58
2023-03-26T07:35:30.120Z,84.99
2023-03-26T07:41:06.071Z,84.55
2023-03-26T07:46:37.256Z,84.38
2023-03-26T07:52:12.193Z,84.29
2023-03-26T07:57:46.950Z,84.30
2023-03-26T08:03:47.907Z,83.98
2023-03-26T08:09:36.662Z,83.82
2023-03-26T08:15:12.683Z,83.95
2023-03-26T08:20:34.610Z,84.00
2023-03-26T08:25:57.910Z,83.41
2023-03-26T08:31:05.775Z,83.64
2023-03-26T08:36:14.620Z,82.96
2023-03-26T08:42:11.336Z,83.06
2023-03-26T08:48:19.664Z,83.20
2023-03-26T08:54:03.676Z,83.80
2023-03-26T08:59:57.796Z,84.97
2023-03-26T09:05:47.737Z,85.39
2023-03-26T09:11:30.306Z,85.73
2023-03-26T09:17:19.515Z,86.23
2023-03-26T09:23:05.282Z,85.74
2023-03-26T09:29:08.585Z,85.97
2023-03-26T09:34:30.883Z,84.57
2023-03-26T09:39:44.493Z,83.31
2023-03-26T09:45:52.698Z,82.21
2023-03-26T09:51:14.704Z,80.63
2023-03-26T09:56:39.580Z,79.61
2023-03-26T10:02:04.802Z,78.88
2023-03-26T10:07:31.783Z,78.95
2023-03-26T10:12:41.552Z,76.86
2023-03-26T10:18:03.375Z,77.73
2023-03-26T10:23:50.156Z,77.94
2023-03-26T10:29:22.549Z,77.56
2023-03-26T10:34:53.004Z,77.16
2023-03-26T10:40:25.367Z,76.78
2023-03-26T10:45:50.014Z,76.78
2023-03-26T10:51:15.870Z,76.87
2023-03-26T10:56:29.184Z,76.94
2023-03-26T11:01:45.602Z,76.71
2023-03-26T11:07:05.524Z,76.63
2023-03-26T11:12:27.553Z,76.48
2023-03-26T11:17:48.781Z,78.45
2023-03-26T11:23:22.468Z,82.08
2023-03-26T11:29:03.885Z,82.91
2023-03-26T11:34:34.628Z,84.36
2023-03-26T11:39:52.409Z,85.43
2023-03-26T11:45:04.032Z,84.77
2023-03-26T11:50:22.583Z,84.09
2023-03-26T11:55:34.023Z,82.96
2023-03-26T12:00:42.727Z,81.51
2023-03-26T12:05:53.898Z,80.99
2023-03-26T12:11:11.139Z,79.99
2023-03-26T12:16:21.674Z,78.42
2023-03-26T12:21:30.490Z,77.50
2023-03-26T12:26:45.193Z,77.10
2023-03-26T12:31:58.157Z,77.20
2023-03-26T12:37:07.432Z,76.25
2023-03-26T12:44:46.870Z,75.28
2023-03-26T12:48:04.548Z,74.58
2023-03-26T12:53:40.128Z,73.49
2023-03-26T12:59:08.516Z,74.48
2023-03-26T13:05:05.122Z,74.37
2023-03-26T13:10:42.607Z,72.68
2023-03-26T13:15:54.016Z,74.14
2023-03-26T13:21:12.476Z,74.52
2023-03-26T13:26:48.214Z,73.90
2023-03-26T13:32:07.536Z,73.71
2023-03-26T13:37:24.464Z,73.37
2023-03-26T13:42:48.830Z,73.51
2023-03-26T13:48:01.358Z,73.42
2023-03-26T13:53:16.482Z,73.94
2023-03-26T13:58:36.805Z,73.85
2023-03-26T14:03:55.985Z,73.40
2023-03-26T14:09:09.658Z,72.74
2023-03-26T14:14:21.254Z,72.97
2023-03-26T14:20:12.196Z,73.42
2023-03-26T14:25:40.505Z,74.13
2023-03-26T14:31:19.832Z,74.27
2023-03-26T14:37:00.763Z,74.92
2023-03-26T14:42:20.503Z,75.09
2023-03-26T14:47:31.081Z,74.78
2023-03-26T14:52:50.429Z,74.81
2023-03-26T14:58:23.329Z,74.45
2023-03-26T15:04:38.926Z,73.91
2023-03-26T15:11:03.206Z,73.83
2023-03-26T15:17:01.914Z,74.83
2023-03-26T15:23:08.544Z,73.08
2023-03-26T15:29:17.771Z,73.29
2023-03-26T15:35:25.455Z,73.12
2023-03-26T15:40:50.154Z,74.63
2023-03-26T15:46:30.472Z,73.00
2023-03-26T15:51:53.360Z,73.40
2023-03-26T15:57:21.244Z,73.93
2023-03-26T16:02:42.873Z,72.70
2023-03-26T16:08:08.059Z,74.61
2023-03-26T16:13:33.262Z,74.60
2023-03-26T16:18:44.591Z,74.62
2023-03-26T16:23:58.465Z,73.98
2023-03-26T16:29:26.740Z,74.63
2023-03-26T16:34:53.548Z,74.89
2023-03-26T16:40:51.064Z,74.51
2023-03-26T16:46:09.482Z,74.80
2023-03-26T16:51:34.162Z,74.52
2023-03-26T16:56:51.312Z,74.47
2023-03-26T17:02:11.207Z,74.43
2023-03-26T17:07:32.102Z,74.62
2023-03-26T17:12:49.022Z,74.74
2023-03-26T17:18:29.082Z,74.15
2023-03-26T17:24:06.247Z,74.18
2023-03-26T17:29:54.984Z,74.54
2023-03-26T17:35:08.439Z,75.61
2023-03-26T17:40:55.511Z,75.78
2023-03-26T17:46:30.726Z,76.66
2023-03-26T17:51:55.575Z,77.71
2023-03-26T17:57:14.616Z,77.99
2023-03-26T18:02:35.642Z,78.29
2023-03-26T18:08:14.463Z,78.70
2023-03-26T18:14:11.663Z,79.60
2023-03-26T18:19:23.898Z,79.30
2023-03-26T18:24:38.972Z,80.60
2023-03-26T18:30:03.531Z,81.61
2023-03-26T18:35:26.960Z,83.19
2023-03-26T18:40:44.593Z,84.49
2023-03-26T18:45:59.558Z,84.76
2023-03-26T18:51:11.322Z,85.00
2023-03-26T18:56:34.560Z,84.86
2023-03-26T19:01:47.397Z,84.33
2023-03-26T19:06:58.196Z,83.81
2023-03-26T19:12:11.364Z,84.37
2023-03-26T19:17:23.099Z,84.33
2023-03-26T19:22:34.630Z,84.08
2023-03-26T19:27:44.857Z,83.56
2023-03-26T19:33:12.690Z,83.29
2023-03-26T19:38:33.504Z,82.90
2023-03-26T19:43:42.880Z,82.72
2023-03-26T19:48:58.098Z,82.89
2023-03-26T19:54:16.984Z,82.58
2023-03-26T19:59:28.241Z,82.52
2023-03-26T20:04:43.832Z,82.96
2023-03-26T20:09:54.645Z,83.13
2023-03-26T20:15:04.924Z,83.25
2023-03-26T20:20:18.041Z,83.02
2023-03-26T20:25:31.415Z,83.38
2023-03-26T20:30:41.677Z,83.66
2023-03-26T20:35:55.634Z,83.50
2023-03-26T20:41:04.880Z,83.01
2023-03-26T20:46:19.146Z,83.10
2023-03-26T20:51:31.957Z,82.79
2023-03-26T20:56:42.194Z,83.25
2023-03-26T21:01:50.405Z,82.94
2023-03-26T21:07:07.063Z,82.84
2023-03-26T21:12:31.711Z,82.93
2023-03-26T21:17:39.931Z,82.61
2023-03-26T21:22:58.640Z,83.51
2023-03-26T21:28:39.759Z,83.80
2023-03-26T21:33:51.180Z,83.76
2023-03-26T21:39:01.768Z,83.81
2023-03-26T21:44:08.931Z,84.47
2023-03-26T21:49:18.330Z,84.59
2023-03-26T21:54:29.260Z,85.04
2023-03-26T21:59:45.099Z,85.10
2023-03-26T22:04:56.535Z,84.73
2023-03-26T22:10:05.456Z,84.74
2023-03-26T22:15:14.504Z,84.67
2023-03-26T22:20:24.993Z,84.87
2023-03-26T22:25:33.353Z,85.04
2023-03-26T22:30:40.322Z,84.88
2023-03-26T22:35:47.377Z,85.41
2023-03-26T22:40:59.317Z,85.14
2023-03-26T22:46:08.248Z,84.57
2023-03-26T22:51:15.101Z,84.21
2023-03-26T22:56:23.611Z,84.10
2023-03-26T23:01:31.148Z,83.92
2023-03-26T23:06:38.209Z,84.06
2023-03-26T23:11:46.120Z,84.09
2023-03-26T23:16:52.619Z,83.98
2023-03-26T23:21:59.274Z,84.08
2023-03-26T23:27:07.326Z,83.87
2023-03-26T23:32:23.515Z,83.58
2023-03-26T23:37:35.399Z,83.59
2023-03-26T23:42:43.454Z,84.00
2023-03-26T23:47:50.065Z,83.76
2023-03-26T23:52:58.327Z,84.06
2023-03-26T23:58:07.080Z,83.91
